Terminal Aerodrome Forecast
Issued by NWS Pocatello, ID

Home | Current Version | Previous Version | Text Only | Print | Product List | Glossary On
Versions: 1 2 3 4 5 6 7 8 9 10 11 12 13 14 15 16 17 18 19 20 21
423
FTUS45 KPIH 051735
TAFBYI
TAF
KBYI 051735Z 0518/0618 26013G23KT P6SM FEW015
     FM060200 VRB06KT P6SM SKC
      TEMPO 0608/0612 6SM BR FEW002
     FM061200 VRB06KT P6SM VCSH SCT020 BKN040=

USA.gov is the U.S. government's official web portal to all federal, state and local government web resources and services.